Time;durP1;ratioP1;P1;durP2;ratioP2;P2;SDS_P1;SDS_P2;PMS_P1;PMS_P2;Temp;Humidity;BMP_temperature;BMP_pressure;BME280_temperature;BME280_humidity;BME280_pressure;Samples;Min_cycle;Max_cycle;Signal;HPM_P1;HPM_P2
2021/12/01 00:01:48;;;;;;;3.17;1.83;;;10.90;99.90;;;;;;5046552;28;20580;-91
2021/12/01 00:04:14;;;;;;;4.43;2.73;;;10.90;99.90;;;;;;5046608;28;20206;-91
2021/12/01 00:06:40;;;;;;;6.50;4.17;;;10.90;99.90;;;;;;5046047;28;20206;-91
2021/12/01 00:09:06;;;;;;;5.60;4.67;;;10.90;99.90;;;;;;5030840;28;20222;-90
2021/12/01 00:11:32;;;;;;;13.63;4.70;;;10.90;99.90;;;;;;5062807;28;20226;-90
2021/12/01 00:13:57;;;;;;;5.90;4.07;;;10.90;99.90;;;;;;5031576;28;20213;-90
2021/12/01 00:16:23;;;;;;;10.03;3.90;;;11.00;99.90;;;;;;5047386;28;20229;-90
2021/12/01 00:18:49;;;;;;;3.50;2.43;;;11.00;99.90;;;;;;5047507;28;20325;-88
2021/12/01 00:21:15;;;;;;;9.23;3.70;;;11.00;99.90;;;;;;5045500;28;20245;-91
2021/12/01 00:23:41;;;;;;;3.43;2.77;;;11.00;99.90;;;;;;5047600;28;20240;-89
2021/12/01 00:26:07;;;;;;;4.50;3.47;;;11.00;99.90;;;;;;5046026;28;20205;-91
2021/12/01 00:28:33;;;;;;;6.13;3.33;;;11.00;99.90;;;;;;5047120;28;20239;-90
2021/12/01 00:31:00;;;;;;;15.17;3.80;;;11.00;99.90;;;;;;5045760;28;20229;-90
2021/12/01 00:33:26;;;;;;;6.13;3.43;;;11.00;99.90;;;;;;5045764;28;20237;-91
2021/12/01 00:35:55;;;;;;;3.23;2.20;;;11.00;99.90;;;;;;5047943;28;20210;-90
2021/12/01 00:38:23;;;;;;;5.87;3.13;;;11.00;99.90;;;;;;5046899;28;20303;-90
2021/12/01 00:40:49;;;;;;;3.93;3.13;;;11.00;99.90;;;;;;5046641;28;20235;-89
2021/12/01 00:43:18;;;;;;;6.03;2.37;;;11.00;99.90;;;;;;5047108;28;20311;-89
2021/12/01 00:45:57;;;;;;;8.50;2.20;;;11.00;99.90;;;;;;5047156;28;20218;-91
2021/12/01 00:48:25;;;;;;;15.03;2.23;;;11.00;99.90;;;;;;5045410;28;20226;-90
2021/12/01 00:50:52;;;;;;;3.53;3.20;;;11.10;99.90;;;;;;5047111;28;20217;-89
2021/12/01 00:53:19;;;;;;;8.57;2.87;;;11.00;99.90;;;;;;5046442;28;20221;-88
2021/12/01 00:55:45;;;;;;;5.33;3.10;;;11.00;99.90;;;;;;5047299;28;20536;-89
2021/12/01 00:58:12;;;;;;;5.10;3.47;;;11.00;99.90;;;;;;5029983;28;20265;-89
2021/12/01 01:00:41;;;;;;;8.20;2.87;;;11.00;99.90;;;;;;5047610;28;20222;-88
2021/12/01 01:03:08;;;;;;;8.27;2.77;;;11.10;99.90;;;;;;5046292;28;20225;-89
2021/12/01 01:05:35;;;;;;;4.03;3.63;;;11.10;99.90;;;;;;5046319;28;20271;-89
2021/12/01 01:08:01;;;;;;;6.73;2.30;;;11.10;99.90;;;;;;5047173;28;20241;-89
2021/12/01 01:18:37;;;;;;;3.57;1.97;;;11.10;99.90;;;;;;5034393;28;20241;-89
2021/12/01 01:21:03;;;;;;;2.27;1.50;;;11.10;99.90;;;;;;5046911;28;20228;-90
2021/12/01 01:23:29;;;;;;;3.60;2.30;;;11.10;99.90;;;;;;5044150;28;20247;-90
2021/12/01 01:25:59;;;;;;;2.80;2.37;;;11.10;99.90;;;;;;5044492;28;20182;-89
2021/12/01 01:28:25;;;;;;;3.47;1.37;;;11.10;99.90;;;;;;5043517;28;20290;-89
2021/12/01 01:30:53;;;;;;;5.93;2.70;;;11.20;99.90;;;;;;5027061;28;20221;-88
2021/12/01 01:33:20;;;;;;;1.20;1.07;;;11.20;99.90;;;;;;5043750;28;20229;-89
2021/12/01 01:35:46;;;;;;;5.90;2.27;;;11.10;99.90;;;;;;5044146;28;20309;-90
2021/12/01 01:38:12;;;;;;;1.17;0.90;;;11.20;99.90;;;;;;5044350;28;20189;-88
2021/12/01 01:40:38;;;;;;;11.97;1.53;;;11.10;99.90;;;;;;5045553;28;20637;-88
2021/12/01 01:43:05;;;;;;;5.07;1.13;;;11.20;99.90;;;;;;5045045;28;20237;-89
2021/12/01 01:45:31;;;;;;;5.00;1.83;;;11.20;99.90;;;;;;5028071;28;20214;-89
2021/12/01 01:48:03;;;;;;;4.20;1.83;;;11.20;99.90;;;;;;5044929;28;20267;-89
2021/12/01 01:50:37;;;;;;;1.43;1.33;;;11.20;99.90;;;;;;5045671;28;20226;-88
2021/12/01 01:53:04;;;;;;;2.60;1.83;;;11.20;99.90;;;;;;5052482;28;20251;-88
2021/12/01 01:55:30;;;;;;;2.40;1.33;;;11.20;99.90;;;;;;5046517;28;20198;-89
2021/12/01 01:57:56;;;;;;;13.33;1.40;;;11.20;99.90;;;;;;5028420;28;20706;-91
2021/12/01 02:00:22;;;;;;;6.23;1.37;;;11.20;99.90;;;;;;5037259;28;20714;-90
2021/12/01 02:02:49;;;;;;;1.63;0.80;;;11.20;99.90;;;;;;5044384;28;20283;-90
2021/12/01 02:05:15;;;;;;;18.70;1.43;;;11.20;99.90;;;;;;5026751;28;20948;-91
2021/12/01 02:07:43;;;;;;;4.77;1.00;;;11.20;99.90;;;;;;5027969;28;20253;-90
2021/12/01 02:10:09;;;;;;;1.87;1.43;;;11.20;99.90;;;;;;5059696;28;20229;-89
2021/12/01 02:12:37;;;;;;;7.03;1.20;;;11.20;99.90;;;;;;5043431;28;20240;-90
2021/12/01 02:15:03;;;;;;;1.87;0.83;;;11.20;99.90;;;;;;5043473;28;20223;-89
2021/12/01 02:17:29;;;;;;;2.10;0.83;;;11.30;99.90;;;;;;5043343;28;20240;-90
2021/12/01 02:19:55;;;;;;;12.23;1.97;;;11.30;99.90;;;;;;5044318;28;20807;-89
2021/12/01 02:22:21;;;;;;;3.33;0.80;;;11.30;99.90;;;;;;5034913;28;20279;-88
2021/12/01 02:24:47;;;;;;;8.43;1.13;;;11.30;99.90;;;;;;5044005;28;20217;-90
2021/12/01 02:27:14;;;;;;;0.83;0.83;;;11.30;99.90;;;;;;5045321;28;20216;-88
2021/12/01 02:29:40;;;;;;;3.70;0.93;;;11.30;99.90;;;;;;5042907;28;21175;-90
2021/12/01 02:32:07;;;;;;;5.07;0.90;;;11.30;99.90;;;;;;5042604;28;20305;-90
2021/12/01 02:34:35;;;;;;;4.00;0.93;;;11.30;99.90;;;;;;5044256;28;20765;-90
2021/12/01 02:37:01;;;;;;;2.47;1.37;;;11.30;99.90;;;;;;5044401;28;20232;-90
2021/12/01 02:39:28;;;;;;;3.57;1.07;;;11.30;99.90;;;;;;5044736;28;20229;-89
2021/12/01 02:41:56;;;;;;;0.57;0.57;;;11.30;99.90;;;;;;5044941;28;20241;-90
2021/12/01 02:44:23;;;;;;;4.63;0.70;;;11.30;99.90;;;;;;5042903;28;20260;-89
2021/12/01 02:46:49;;;;;;;3.97;0.30;;;11.40;99.90;;;;;;5044603;28;20290;-90
2021/12/01 02:49:22;;;;;;;1.70;1.23;;;11.30;99.90;;;;;;5042636;28;20214;-90
2021/12/01 02:51:49;;;;;;;4.87;1.00;;;11.40;99.90;;;;;;5034832;28;20228;-90
2021/12/01 02:54:16;;;;;;;8.63;1.17;;;11.30;99.90;;;;;;5042377;28;20213;-88
2021/12/01 02:56:46;;;;;;;1.50;0.90;;;11.30;99.90;;;;;;5043146;28;20566;-89
2021/12/01 02:59:13;;;;;;;1.53;0.60;;;11.30;99.90;;;;;;5042713;28;20201;-90
2021/12/01 03:01:39;;;;;;;1.07;0.97;;;11.40;99.90;;;;;;5042891;28;20208;-88
2021/12/01 03:04:05;;;;;;;0.50;0.30;;;11.40;99.90;;;;;;5042689;28;20218;-90
2021/12/01 03:06:33;;;;;;;5.50;0.57;;;11.40;99.90;;;;;;5043050;28;20714;-90
2021/12/01 03:09:00;;;;;;;3.53;2.60;;;11.50;99.90;;;;;;5043784;28;20221;-91
2021/12/01 03:11:26;;;;;;;3.90;0.70;;;11.50;99.90;;;;;;5042575;28;20229;-89
2021/12/01 03:13:54;;;;;;;0.43;0.43;;;11.50;99.90;;;;;;5043869;28;20221;-92
2021/12/01 03:16:20;;;;;;;3.20;0.57;;;11.60;99.90;;;;;;5043527;28;20220;-90
2021/12/01 03:18:46;;;;;;;2.43;0.97;;;11.60;99.90;;;;;;5027079;28;20255;-90
2021/12/01 03:21:16;;;;;;;0.60;0.60;;;11.60;99.90;;;;;;5027153;28;20217;-90
2021/12/01 03:23:42;;;;;;;2.10;1.03;;;11.60;99.90;;;;;;5044750;28;20224;-90
2021/12/01 03:26:08;;;;;;;3.30;0.37;;;11.70;99.90;;;;;;5043084;28;20190;-91
2021/12/01 03:28:34;;;;;;;0.30;0.27;;;11.70;99.90;;;;;;5061417;28;20192;-90
2021/12/01 03:31:00;;;;;;;1.70;0.60;;;11.70;99.90;;;;;;5043909;28;20686;-88
2021/12/01 03:33:27;;;;;;;8.07;2.53;;;11.70;99.90;;;;;;5026394;28;20301;-87
2021/12/01 03:35:53;;;;;;;2.83;0.47;;;11.70;99.90;;;;;;5043212;28;20230;-88
2021/12/01 03:38:21;;;;;;;1.83;1.30;;;11.70;99.90;;;;;;5034031;28;20209;-89
2021/12/01 03:40:48;;;;;;;1.00;1.00;;;11.70;99.90;;;;;;5044965;28;20265;-89
2021/12/01 03:43:14;;;;;;;2.97;0.53;;;11.70;99.90;;;;;;5060015;28;20218;-90
2021/12/01 03:45:40;;;;;;;1.70;0.50;;;11.60;99.90;;;;;;5043406;28;20283;-89
2021/12/01 03:48:06;;;;;;;1.90;0.40;;;11.60;99.90;;;;;;5043241;28;20218;-89
2021/12/01 03:50:32;;;;;;;2.17;0.77;;;11.60;99.90;;;;;;5043159;28;20240;-88
2021/12/01 03:52:58;;;;;;;0.37;0.17;;;11.60;99.90;;;;;;5045150;28;20213;-90
2021/12/01 03:55:24;;;;;;;4.90;0.57;;;11.60;99.90;;;;;;5059914;28;20275;-90
2021/12/01 03:57:50;;;;;;;3.40;0.70;;;11.60;99.90;;;;;;5046821;28;20225;-88
2021/12/01 04:00:17;;;;;;;0.93;0.93;;;11.50;99.90;;;;;;5047976;28;20226;-90
2021/12/01 04:02:43;;;;;;;3.00;0.87;;;11.50;99.90;;;;;;5047009;28;20230;-89
2021/12/01 04:05:10;;;;;;;4.80;1.03;;;11.50;99.90;;;;;;5047170;28;20236;-89
2021/12/01 04:07:36;;;;;;;4.53;1.13;;;11.40;99.90;;;;;;5046626;28;20185;-91
2021/12/01 04:10:05;;;;;;;0.53;0.50;;;11.40;99.90;;;;;;5045175;28;20702;-90
2021/12/01 04:12:31;;;;;;;3.50;0.80;;;11.40;99.90;;;;;;5047263;28;20230;-89
2021/12/01 04:14:57;;;;;;;1.90;0.90;;;11.30;99.90;;;;;;5047044;28;20238;-92
2021/12/01 04:17:24;;;;;;;4.63;0.90;;;11.30;99.90;;;;;;5046692;28;20218;-90
2021/12/01 04:19:49;;;;;;;1.63;1.13;;;11.30;99.90;;;;;;5047058;28;20236;-90
2021/12/01 04:22:15;;;;;;;3.00;1.60;;;11.30;99.90;;;;;;5048173;28;20222;-89
2021/12/01 04:24:41;;;;;;;2.17;1.23;;;11.30;99.90;;;;;;5046883;28;20226;-91
2021/12/01 04:27:09;;;;;;;6.57;0.93;;;11.30;99.90;;;;;;5047521;28;20252;-88
2021/12/01 04:29:35;;;;;;;1.57;0.87;;;11.30;99.90;;;;;;5045842;28;20225;-90
2021/12/01 04:32:00;;;;;;;5.23;1.50;;;11.30;99.90;;;;;;5046678;28;20584;-85
2021/12/01 04:34:26;;;;;;;5.73;0.70;;;11.30;99.90;;;;;;5046689;28;20209;-89
2021/12/01 04:36:52;;;;;;;1.43;0.50;;;11.30;99.90;;;;;;5046393;28;20886;-91
2021/12/01 04:39:19;;;;;;;3.60;0.87;;;11.40;99.90;;;;;;5029503;28;20213;-89
2021/12/01 04:41:53;;;;;;;6.43;1.80;;;11.30;99.90;;;;;;5045831;28;20287;-89
2021/12/01 04:44:21;;;;;;;5.23;2.10;;;11.30;99.90;;;;;;5046876;28;20538;-90
2021/12/01 04:46:48;;;;;;;1.03;0.50;;;11.30;99.90;;;;;;5046761;28;20269;-89
2021/12/01 04:49:17;;;;;;;1.43;0.70;;;11.30;99.90;;;;;;5047039;28;20253;-88
2021/12/01 04:51:46;;;;;;;1.70;0.97;;;11.40;99.90;;;;;;5047250;28;20245;-90
2021/12/01 04:54:12;;;;;;;1.00;0.90;;;11.40;99.90;;;;;;5048320;28;20230;-90
2021/12/01 04:56:38;;;;;;;7.17;0.50;;;11.40;99.90;;;;;;5045898;28;20249;-91
2021/12/01 04:59:05;;;;;;;6.03;1.17;;;11.40;99.90;;;;;;5045848;28;20200;-91
2021/12/01 05:01:33;;;;;;;8.60;1.07;;;11.40;99.90;;;;;;5046037;28;20740;-90
2021/12/01 05:03:59;;;;;;;6.07;1.47;;;11.50;99.90;;;;;;5046856;28;20218;-88
2021/12/01 05:06:25;;;;;;;1.90;0.60;;;11.50;99.90;;;;;;5028902;28;20222;-90
2021/12/01 05:08:50;;;;;;;2.87;1.33;;;11.50;99.90;;;;;;5045401;28;20210;-91
2021/12/01 05:11:16;;;;;;;0.73;0.73;;;11.50;99.90;;;;;;5046117;28;20194;-90
2021/12/01 05:13:42;;;;;;;7.20;1.40;;;11.50;99.90;;;;;;5029621;28;20242;-90
2021/12/01 05:16:08;;;;;;;4.53;1.53;;;11.50;99.90;;;;;;5046193;28;20756;-90
2021/12/01 05:18:33;;;;;;;1.63;0.70;;;11.50;99.90;;;;;;5047574;28;20596;-90
2021/12/01 05:20:59;;;;;;;0.60;0.60;;;11.50;99.90;;;;;;5046179;28;20214;-89
2021/12/01 05:23:25;;;;;;;3.40;0.37;;;11.50;99.90;;;;;;5046519;28;20238;-89
2021/12/01 05:25:51;;;;;;;2.37;1.03;;;11.60;99.90;;;;;;5046197;28;20194;-90
2021/12/01 05:28:16;;;;;;;2.63;1.17;;;11.60;99.90;;;;;;5045493;28;21043;-90
2021/12/01 05:30:42;;;;;;;0.30;0.30;;;11.60;99.90;;;;;;5046294;28;20730;-90
2021/12/01 05:33:09;;;;;;;1.10;0.50;;;11.60;99.90;;;;;;5037431;28;20763;-89
2021/12/01 05:35:36;;;;;;;1.03;0.97;;;11.50;99.90;;;;;;5046101;28;20715;-88
2021/12/01 05:38:04;;;;;;;0.50;0.50;;;11.50;99.90;;;;;;5054432;28;20186;-91
2021/12/01 05:40:31;;;;;;;0.30;0.30;;;11.50;99.90;;;;;;5046611;28;20194;-91
2021/12/01 05:42:57;;;;;;;1.83;0.30;;;11.40;99.90;;;;;;5046749;28;20249;-85
2021/12/01 05:45:23;;;;;;;0.77;0.40;;;11.40;99.90;;;;;;5045626;28;20230;-90
2021/12/01 05:47:49;;;;;;;0.20;0.20;;;11.40;99.90;;;;;;5045953;28;20310;-88
2021/12/01 05:50:16;;;;;;;0.10;0.10;;;11.30;99.90;;;;;;5046279;28;20186;-90
2021/12/01 05:52:42;;;;;;;0.93;0.27;;;11.30;99.90;;;;;;5046079;28;20579;-87
2021/12/01 05:55:09;;;;;;;0.50;0.50;;;11.30;99.90;;;;;;5028397;28;20738;-88
2021/12/01 05:57:34;;;;;;;0.30;0.30;;;11.20;99.90;;;;;;5060584;28;20569;-87
2021/12/01 06:00:00;;;;;;;0.67;0.40;;;11.20;99.90;;;;;;5025408;28;20218;-90
2021/12/01 06:02:27;;;;;;;0.57;0.53;;;11.20;99.90;;;;;;5044371;28;20692;-86
2021/12/01 06:04:53;;;;;;;0.50;0.50;;;11.10;99.90;;;;;;5045340;28;20239;-90
2021/12/01 06:07:19;;;;;;;3.10;1.43;;;11.20;99.90;;;;;;5043534;28;20647;-88
2021/12/01 06:09:45;;;;;;;1.50;0.63;;;11.20;99.90;;;;;;5045550;28;20221;-88
2021/12/01 06:12:12;;;;;;;2.70;1.10;;;11.20;99.90;;;;;;5045055;28;20728;-87
2021/12/01 06:14:41;;;;;;;1.03;0.50;;;11.20;99.90;;;;;;5043286;28;20250;-88
2021/12/01 06:17:12;;;;;;;1.10;1.10;;;11.20;99.90;;;;;;5042860;28;20431;-90
2021/12/01 06:19:39;;;;;;;0.30;0.30;;;11.10;99.90;;;;;;5042729;28;20232;-87
2021/12/01 06:22:06;;;;;;;1.53;1.13;;;11.00;99.90;;;;;;5043815;28;20229;-89
2021/12/01 06:24:32;;;;;;;0.87;0.77;;;11.00;99.90;;;;;;5042520;28;20249;-89
2021/12/01 06:26:58;;;;;;;0.83;0.83;;;11.00;99.90;;;;;;5043760;28;20221;-86
2021/12/01 06:29:24;;;;;;;4.03;1.17;;;11.00;99.90;;;;;;5042330;28;20279;-87
2021/12/01 06:31:50;;;;;;;0.40;0.40;;;11.00;99.90;;;;;;5042475;28;20185;-89
2021/12/01 06:34:16;;;;;;;0.90;0.90;;;11.00;99.90;;;;;;5043330;28;20656;-86
2021/12/01 06:36:41;;;;;;;0.60;0.60;;;11.00;99.90;;;;;;5043809;28;20704;-87
2021/12/01 06:39:08;;;;;;;3.87;1.00;;;11.00;99.90;;;;;;5043701;28;20226;-88
2021/12/01 06:41:35;;;;;;;1.93;1.83;;;11.10;99.90;;;;;;5027155;28;20249;-88
2021/12/01 06:44:00;;;;;;;5.40;1.07;;;11.10;99.90;;;;;;5044636;28;20198;-88
2021/12/01 06:46:28;;;;;;;0.67;0.60;;;11.10;99.90;;;;;;5045027;28;20241;-88
2021/12/01 06:48:55;;;;;;;0.77;0.77;;;11.10;99.90;;;;;;5042960;28;20222;-89
2021/12/01 06:51:21;;;;;;;1.50;1.23;;;11.10;99.90;;;;;;5042555;28;20218;-88
2021/12/01 06:53:46;;;;;;;1.80;1.00;;;11.10;99.90;;;;;;5025031;28;20252;-88
2021/12/01 06:56:12;;;;;;;0.50;0.50;;;11.10;99.90;;;;;;5042353;28;20193;-88
2021/12/01 06:58:38;;;;;;;0.70;0.70;;;11.10;99.90;;;;;;5046044;28;20561;-90
2021/12/01 07:01:06;;;;;;;3.83;1.40;;;11.20;99.90;;;;;;5044182;28;20225;-87
2021/12/01 07:03:33;;;;;;;6.10;0.97;;;11.20;99.90;;;;;;5045056;28;20229;-87
2021/12/01 07:05:59;;;;;;;1.30;1.17;;;11.20;99.90;;;;;;5027298;28;20229;-87
2021/12/01 07:08:25;;;;;;;1.47;0.67;;;11.20;99.90;;;;;;5043549;28;20559;-87
2021/12/01 07:10:51;;;;;;;5.30;0.93;;;11.20;99.90;;;;;;5045861;28;20194;-93
2021/12/01 07:13:17;;;;;;;10.30;1.63;;;11.20;99.90;;;;;;5045479;28;20229;-91
2021/12/01 07:15:43;;;;;;;0.53;0.53;;;11.20;99.90;;;;;;5025847;28;20222;-90
2021/12/01 07:18:09;;;;;;;7.83;1.60;;;11.20;99.90;;;;;;5043819;28;20247;-88
2021/12/01 07:20:35;;;;;;;3.43;1.13;;;11.20;99.90;;;;;;5043122;28;20399;-90
2021/12/01 07:23:02;;;;;;;15.03;1.20;;;11.10;99.90;;;;;;5044580;28;20293;-89
2021/12/01 07:25:32;;;;;;;6.27;1.33;;;11.10;99.90;;;;;;5045063;28;20202;-88
2021/12/01 07:27:59;;;;;;;4.87;0.90;;;11.10;99.90;;;;;;5044280;28;20213;-88
2021/12/01 07:30:25;;;;;;;1.30;0.50;;;11.10;99.90;;;;;;5043432;28;20794;-89
2021/12/01 07:32:51;;;;;;;3.93;0.70;;;11.10;99.90;;;;;;5046209;28;20325;-88
2021/12/01 07:35:17;;;;;;;1.20;0.23;;;11.10;99.90;;;;;;5044984;28;20973;-90
2021/12/01 07:37:44;;;;;;;0.70;0.70;;;11.10;99.90;;;;;;5047144;28;20705;-88
2021/12/01 07:40:10;;;;;;;8.90;1.40;;;11.10;99.90;;;;;;5045186;28;20689;-89
2021/12/01 07:42:37;;;;;;;1.47;1.17;;;11.10;99.90;;;;;;5045291;28;20318;-90
2021/12/01 07:45:06;;;;;;;0.50;0.40;;;11.20;99.90;;;;;;5046717;28;20217;-90
2021/12/01 07:47:32;;;;;;;0.70;0.40;;;11.10;99.90;;;;;;5045979;28;20225;-88
2021/12/01 07:49:58;;;;;;;2.47;1.27;;;10.90;99.90;;;;;;5047633;28;20194;-89
2021/12/01 07:52:24;;;;;;;1.60;1.33;;;10.80;99.90;;;;;;5047247;28;20233;-93
2021/12/01 07:54:50;;;;;;;4.13;0.90;;;10.70;99.90;;;;;;5047976;28;20305;-93
2021/12/01 07:57:16;;;;;;;13.37;2.53;;;10.60;99.90;;;;;;5046658;28;20276;-90
2021/12/01 07:59:42;;;;;;;3.53;1.10;;;10.60;99.90;;;;;;5046698;28;20221;-87
2021/12/01 08:02:08;;;;;;;3.60;1.13;;;10.50;99.90;;;;;;5045946;28;20626;-89
2021/12/01 08:04:36;;;;;;;1.70;0.60;;;10.40;99.90;;;;;;5047673;28;20193;-86
2021/12/01 08:07:02;;;;;;;6.00;2.00;;;10.50;99.90;;;;;;5062698;28;20217;-88
2021/12/01 08:09:28;;;;;;;2.80;1.03;;;10.50;99.90;;;;;;5030194;28;20221;-86
2021/12/01 08:11:54;;;;;;;1.43;0.83;;;10.50;99.90;;;;;;5047137;28;20317;-91
2021/12/01 08:14:21;;;;;;;2.47;0.93;;;10.60;99.90;;;;;;5048888;28;20193;-91
2021/12/01 08:16:47;;;;;;;1.03;0.70;;;10.70;99.90;;;;;;5067354;28;20182;-90
2021/12/01 08:19:13;;;;;;;1.17;1.03;;;10.70;99.90;;;;;;5049571;28;20268;-92
2021/12/01 08:21:38;;;;;;;0.43;0.43;;;10.80;99.90;;;;;;5048928;28;20257;-86
2021/12/01 08:24:05;;;;;;;5.37;0.90;;;10.80;99.90;;;;;;5030556;28;20241;-89
2021/12/01 08:26:31;;;;;;;1.53;1.03;;;10.90;99.90;;;;;;5060031;28;20226;-87
2021/12/01 08:28:57;;;;;;;6.53;0.50;;;10.80;99.90;;;;;;5057574;28;20210;-89
2021/12/01 08:31:23;;;;;;;2.97;1.20;;;10.80;99.90;;;;;;5065958;28;20232;-88
2021/12/01 08:33:49;;;;;;;1.53;1.43;;;10.80;99.90;;;;;;5046628;28;20221;-89
2021/12/01 08:36:16;;;;;;;2.93;1.57;;;10.70;99.90;;;;;;5047447;28;20284;-88
2021/12/01 08:38:42;;;;;;;0.67;0.60;;;10.60;99.90;;;;;;5022540;28;20214;-87
2021/12/01 08:41:08;;;;;;;1.63;1.53;;;10.60;99.90;;;;;;5047812;28;20299;-87
2021/12/01 08:43:35;;;;;;;6.00;0.77;;;10.50;99.90;;;;;;5030357;28;20700;-86
2021/12/01 08:46:02;;;;;;;2.80;1.03;;;10.50;99.90;;;;;;5046091;28;20253;-88
2021/12/01 08:48:28;;;;;;;3.03;0.87;;;10.40;99.90;;;;;;5046048;28;20309;-87
2021/12/01 08:50:56;;;;;;;0.13;0.13;;;10.30;99.90;;;;;;5046455;28;20301;-91
2021/12/01 08:53:23;;;;;;;0.47;0.47;;;10.20;99.90;;;;;;5046242;28;20233;-91
2021/12/01 08:55:49;;;;;;;3.80;0.47;;;10.20;99.90;;;;;;5045595;28;20255;-89
2021/12/01 08:58:16;;;;;;;2.93;1.10;;;10.20;99.90;;;;;;5045552;28;20651;-87
2021/12/01 09:00:44;;;;;;;0.20;0.20;;;10.20;99.90;;;;;;5046529;28;20213;-89
2021/12/01 09:03:16;;;;;;;1.37;0.77;;;10.30;99.90;;;;;;5045253;28;20226;-88
2021/12/01 09:05:44;;;;;;;0.50;0.50;;;10.20;99.90;;;;;;5036334;28;20218;-88
2021/12/01 09:08:10;;;;;;;0.83;0.77;;;10.20;99.90;;;;;;5045581;28;20557;-91
2021/12/01 09:10:36;;;;;;;2.17;2.03;;;10.20;99.90;;;;;;5062572;28;20565;-90
2021/12/01 09:13:04;;;;;;;6.97;1.00;;;10.20;99.90;;;;;;5046677;28;20225;-89
2021/12/01 09:15:30;;;;;;;2.37;0.40;;;10.30;99.90;;;;;;5045154;28;20342;-87
2021/12/01 09:17:57;;;;;;;1.73;0.77;;;10.40;99.90;;;;;;5045418;28;20255;-87
2021/12/01 09:20:24;;;;;;;0.40;0.40;;;10.40;99.90;;;;;;5044712;28;20422;-87
2021/12/01 09:22:50;;;;;;;0.90;0.70;;;10.40;99.90;;;;;;5045293;28;20194;-89
2021/12/01 09:25:16;;;;;;;0.30;0.30;;;10.50;99.90;;;;;;5044139;28;20213;-88
2021/12/01 09:27:44;;;;;;;1.97;1.87;;;10.50;99.90;;;;;;5044542;28;20272;-88
2021/12/01 09:30:11;;;;;;;4.40;1.30;;;10.50;99.90;;;;;;5027615;28;20248;-88
2021/12/01 09:32:38;;;;;;;6.67;0.70;;;10.50;99.90;;;;;;5044606;28;20229;-88
2021/12/01 09:35:05;;;;;;;5.77;1.27;;;10.60;99.90;;;;;;5027344;28;20175;-88
2021/12/01 09:37:31;;;;;;;4.33;0.93;;;10.50;99.90;;;;;;5044827;28;20240;-89
2021/12/01 09:39:57;;;;;;;4.40;1.30;;;10.50;99.90;;;;;;5044886;28;20689;-88
2021/12/01 09:42:23;;;;;;;6.77;0.40;;;10.50;99.90;;;;;;5044130;28;20261;-85
2021/12/01 09:44:52;;;;;;;3.60;1.00;;;10.40;99.90;;;;;;5042066;28;20594;-88
2021/12/01 09:47:20;;;;;;;1.87;0.57;;;10.50;99.90;;;;;;5045683;28;20212;-89
2021/12/01 09:49:47;;;;;;;6.17;1.40;;;10.50;99.90;;;;;;5045260;28;20313;-87
2021/12/01 09:52:13;;;;;;;4.53;1.30;;;10.60;99.90;;;;;;5044522;28;20594;-88
2021/12/01 09:54:39;;;;;;;2.17;1.23;;;10.60;99.90;;;;;;5045005;28;20216;-90
2021/12/01 09:57:13;;;;;;;3.10;0.87;;;10.60;99.90;;;;;;5044323;28;20295;-89
2021/12/01 09:59:42;;;;;;;1.50;1.00;;;10.60;99.90;;;;;;5045193;28;20221;-88
2021/12/01 10:02:10;;;;;;;4.53;1.20;;;10.60;99.90;;;;;;5044281;28;20267;-89
2021/12/01 10:04:35;;;;;;;1.83;1.20;;;10.40;99.90;;;;;;5044317;28;20193;-87
2021/12/01 10:07:19;;;;;;;3.07;0.43;;;10.40;99.90;;;;;;5027966;28;20214;-88
2021/12/01 10:09:48;;;;;;;2.47;1.00;;;10.40;99.90;;;;;;5043742;28;20244;-92
2021/12/01 10:12:15;;;;;;;3.63;1.33;;;10.30;99.90;;;;;;5045418;28;20245;-87
2021/12/01 10:14:48;;;;;;;2.90;0.50;;;10.40;99.90;;;;;;5044507;28;20221;-89
2021/12/01 10:17:15;;;;;;;2.77;2.10;;;10.60;99.90;;;;;;5059189;28;20194;-88
2021/12/01 10:19:41;;;;;;;3.13;2.10;;;10.70;99.90;;;;;;5043790;28;20254;-90
2021/12/01 10:22:11;;;;;;;0.93;0.67;;;10.80;99.90;;;;;;5042679;28;20249;-91
2021/12/01 10:24:39;;;;;;;1.10;0.73;;;10.80;99.90;;;;;;5044026;28;20256;-90
2021/12/01 10:27:13;;;;;;;9.97;2.40;;;10.70;99.90;;;;;;5037705;28;20283;-90
2021/12/01 10:29:43;;;;;;;5.40;0.57;;;10.60;99.90;;;;;;5053326;28;20275;-85
2021/12/01 10:32:09;;;;;;;11.00;1.57;;;10.60;99.90;;;;;;5045655;28;20684;-85
2021/12/01 10:34:35;;;;;;;1.80;0.33;;;10.70;99.90;;;;;;5047175;28;20198;-88
2021/12/01 10:37:29;;;;;;;2.23;1.77;;;10.60;99.90;;;;;;5044390;28;20337;-88
2021/12/01 10:40:09;;;;;;;2.87;0.80;;;10.70;99.90;;;;;;5062244;28;20612;-88
2021/12/01 10:42:58;;;;;;;4.47;0.97;;;10.80;99.90;;;;;;5055070;28;20204;-89
2021/12/01 10:45:48;;;;;;;13.63;2.43;;;10.90;99.90;;;;;;5080347;28;20229;-89
2021/12/01 10:48:25;;;;;;;0.40;0.33;;;10.90;99.90;;;;;;5061357;28;20257;-88
2021/12/01 10:50:52;;;;;;;4.40;0.80;;;10.70;99.90;;;;;;5043808;28;20240;-89
2021/12/01 10:53:21;;;;;;;1.57;1.03;;;10.60;99.90;;;;;;5043304;28;20206;-88
2021/12/01 10:55:48;;;;;;;10.97;1.50;;;10.50;99.90;;;;;;5045114;28;20190;-89
2021/12/01 10:58:15;;;;;;;5.30;1.83;;;10.50;99.90;;;;;;5059578;28;20425;-86
2021/12/01 11:00:46;;;;;;;15.90;0.87;;;10.40;99.90;;;;;;5043005;28;20217;-88
2021/12/01 11:03:18;;;;;;;5.83;0.83;;;10.30;99.90;;;;;;5043462;28;20237;-90
2021/12/01 11:05:53;;;;;;;8.17;1.07;;;10.20;99.90;;;;;;5043386;28;20222;-86
2021/12/01 11:08:39;;;;;;;8.43;2.23;;;10.10;99.90;;;;;;5070369;28;20182;-89
2021/12/01 11:11:11;;;;;;;1.80;0.67;;;10.00;99.90;;;;;;5047716;28;20178;-88
2021/12/01 11:13:40;;;;;;;5.07;1.53;;;10.00;99.90;;;;;;5045758;28;20532;-90
2021/12/01 11:16:07;;;;;;;43.40;3.03;;;10.00;99.90;;;;;;5043815;28;20220;-89
2021/12/01 11:18:36;;;;;;;3.80;1.17;;;10.00;99.90;;;;;;5044508;28;20250;-92
2021/12/01 11:21:17;;;;;;;5.30;1.43;;;9.80;99.90;;;;;;5043824;28;20692;-89
2021/12/01 11:23:45;;;;;;;0.53;0.40;;;9.80;99.90;;;;;;5043889;28;20702;-86
2021/12/01 11:26:22;;;;;;;3.93;1.53;;;9.70;99.90;;;;;;5045582;28;20617;-86
2021/12/01 11:28:53;;;;;;;11.90;1.73;;;9.70;99.90;;;;;;5043805;28;20273;-85
2021/12/01 11:31:28;;;;;;;3.50;1.50;;;9.70;99.90;;;;;;5042910;28;20301;-87
2021/12/01 11:33:58;;;;;;;0.30;0.30;;;9.70;99.90;;;;;;5044716;28;20221;-87
2021/12/01 11:36:29;;;;;;;0.70;0.70;;;9.60;99.90;;;;;;5042919;28;20222;-87
2021/12/01 11:38:57;;;;;;;28.73;2.63;;;9.70;99.90;;;;;;5043756;28;20233;-83
2021/12/01 11:41:24;;;;;;;5.83;1.93;;;9.70;99.90;;;;;;5049957;28;20240;-85
2021/12/01 11:43:50;;;;;;;0.27;0.17;;;9.70;99.90;;;;;;5042618;28;20692;-85
2021/12/01 11:46:17;;;;;;;3.90;1.30;;;9.80;99.90;;;;;;5042520;28;20252;-84
2021/12/01 11:48:47;;;;;;;1.80;1.03;;;9.80;99.90;;;;;;5021799;28;20221;-83
2021/12/01 11:51:36;;;;;;;0.50;0.50;;;9.80;99.90;;;;;;5037911;28;20302;-88
2021/12/01 11:54:06;;;;;;;0.60;0.60;;;9.70;99.90;;;;;;5030632;28;20560;-90
2021/12/01 11:56:35;;;;;;;0.90;0.83;;;9.60;99.90;;;;;;5042412;28;21148;-83
2021/12/01 11:59:03;;;;;;;2.70;0.43;;;9.50;99.90;;;;;;5049319;28;20716;-87
2021/12/01 12:01:37;;;;;;;1.73;0.70;;;9.50;99.90;;;;;;5043986;28;20289;-87
2021/12/01 12:04:14;;;;;;;4.37;0.40;;;9.50;99.90;;;;;;5022996;28;20250;-87
2021/12/01 12:06:49;;;;;;;0.73;0.50;;;9.60;99.90;;;;;;5029797;28;20301;-87
2021/12/01 12:09:18;;;;;;;1.30;0.27;;;9.50;99.90;;;;;;5023210;28;20595;-83
2021/12/01 12:11:47;;;;;;;0.43;0.30;;;9.50;99.90;;;;;;5028679;28;20217;-84
2021/12/01 12:14:19;;;;;;;5.43;1.00;;;9.40;99.90;;;;;;5045105;28;20275;-85
2021/12/01 12:17:19;;;;;;;0.40;0.40;;;9.40;99.90;;;;;;5043328;28;20959;-86
2021/12/01 12:19:50;;;;;;;2.10;0.43;;;9.50;99.90;;;;;;5047185;28;20846;-89
2021/12/01 12:22:50;;;;;;;2.67;1.30;;;9.50;99.90;;;;;;5045772;28;20329;-87
2021/12/01 12:25:51;;;;;;;1.63;0.60;;;9.50;99.90;;;;;;5046838;28;20242;-86
2021/12/01 12:28:25;;;;;;;0.50;0.50;;;9.40;99.90;;;;;;5028836;28;20205;-86
2021/12/01 12:30:53;;;;;;;0.93;0.40;;;9.40;99.90;;;;;;5041156;28;20218;-86
2021/12/01 12:33:26;;;;;;;0.60;0.33;;;9.30;99.90;;;;;;5046202;28;20226;-86
2021/12/01 12:35:59;;;;;;;3.83;2.43;;;9.30;99.90;;;;;;5041754;28;20238;-84
2021/12/01 12:38:25;;;;;;;1.50;0.87;;;9.30;99.90;;;;;;5032250;28;20229;-85
2021/12/01 12:41:20;;;;;;;1.83;1.03;;;9.30;99.90;;;;;;5050078;28;20186;-81
2021/12/01 12:43:46;;;;;;;0.30;0.30;;;9.30;99.90;;;;;;5040875;28;20244;-85
2021/12/01 12:46:16;;;;;;;1.90;1.17;;;9.20;99.90;;;;;;5030579;28;20787;-83
2021/12/01 12:48:48;;;;;;;3.13;1.10;;;9.00;99.90;;;;;;5026408;28;20218;-82
2021/12/01 12:51:26;;;;;;;0.63;0.63;;;9.00;99.90;;;;;;5036863;28;20217;-84
2021/12/01 12:54:04;;;;;;;0.23;0.23;;;9.00;99.90;;;;;;5030475;28;20234;-86
2021/12/01 12:56:40;;;;;;;1.37;0.50;;;8.90;99.90;;;;;;5034918;28;20225;-90
2021/12/01 12:59:21;;;;;;;0.50;0.40;;;8.90;99.90;;;;;;5074960;28;20204;-87
2021/12/01 13:01:49;;;;;;;0.97;0.60;;;8.90;99.90;;;;;;5018686;28;21216;-87